createdAt,value
2023-02-28T00:02:02.443Z,14.32
2023-02-28T00:04:25.037Z,14.32
2023-02-28T00:06:47.509Z,15.30
2023-02-28T00:09:10.068Z,15.20
2023-02-28T00:11:32.745Z,14.55
2023-02-28T00:13:55.588Z,16.45
2023-02-28T00:16:21.393Z,15.32
2023-02-28T00:18:44.723Z,16.65
2023-02-28T00:21:07.582Z,16.20
2023-02-28T00:23:30.494Z,19.60
2023-02-28T00:25:53.314Z,20.63
2023-02-28T00:28:15.986Z,17.77
2023-02-28T00:30:38.663Z,17.23
2023-02-28T00:33:01.378Z,18.53
2023-02-28T00:35:23.992Z,16.77
2023-02-28T00:37:46.691Z,16.67
2023-02-28T00:40:10.600Z,16.23
2023-02-28T00:42:37.221Z,16.73
2023-02-28T00:44:59.796Z,15.83
2023-02-28T00:47:23.013Z,15.75
2023-02-28T00:49:46.340Z,15.00
2023-02-28T00:52:09.179Z,15.05
2023-02-28T00:54:31.737Z,14.48
2023-02-28T00:56:54.490Z,14.33
2023-02-28T00:59:19.015Z,18.38
2023-02-28T01:01:42.694Z,17.52
2023-02-28T01:04:06.006Z,17.15
2023-02-28T01:06:28.674Z,17.85
2023-02-28T01:08:51.479Z,18.10
2023-02-28T01:11:16.984Z,17.45
2023-02-28T01:13:40.040Z,17.88
2023-02-28T01:16:03.000Z,18.00
2023-02-28T01:18:25.703Z,19.55
2023-02-28T01:20:49.402Z,18.97
2023-02-28T01:23:12.948Z,21.83
2023-02-28T01:25:36.908Z,18.38
2023-02-28T01:28:00.945Z,19.35
2023-02-28T01:30:23.548Z,20.83
2023-02-28T01:32:46.264Z,20.47
2023-02-28T01:35:09.202Z,20.25
2023-02-28T01:37:32.029Z,23.40
2023-02-28T01:39:55.769Z,20.02
2023-02-28T01:42:18.431Z,19.70
2023-02-28T01:44:58.864Z,18.27
2023-02-28T01:47:22.654Z,21.17
2023-02-28T01:49:45.898Z,19.52
2023-02-28T01:52:15.938Z,24.00
2023-02-28T01:54:38.715Z,19.35
2023-02-28T01:57:15.447Z,19.33
2023-02-28T01:59:49.751Z,21.08
2023-02-28T02:02:17.538Z,20.90
2023-02-28T02:04:47.252Z,19.55
2023-02-28T02:07:10.792Z,20.60
2023-02-28T02:09:33.602Z,16.97
2023-02-28T02:11:57.855Z,19.52
2023-02-28T02:15:05.743Z,18.80
2023-02-28T02:17:45.545Z,18.88
2023-02-28T02:20:27.190Z,17.50
2023-02-28T02:23:09.197Z,20.67
2023-02-28T02:25:34.500Z,17.08
2023-02-28T02:28:27.249Z,19.67
2023-02-28T02:31:08.006Z,18.33
2023-02-28T02:33:30.682Z,17.48
2023-02-28T02:36:11.287Z,18.47
2023-02-28T02:38:55.753Z,19.55
2023-02-28T02:41:23.403Z,16.20
2023-02-28T02:43:45.972Z,16.73
2023-02-28T02:46:18.750Z,16.45
2023-02-28T02:48:44.777Z,18.90
2023-02-28T02:51:15.900Z,19.58
2023-02-28T02:53:53.183Z,18.38
2023-02-28T02:56:18.931Z,16.02
2023-02-28T02:58:44.305Z,16.25
2023-02-28T03:01:08.248Z,17.30
2023-02-28T03:03:33.403Z,16.73
2023-02-28T03:06:01.248Z,17.05
2023-02-28T03:08:24.210Z,18.08
2023-02-28T03:10:50.852Z,16.90
2023-02-28T03:13:43.556Z,17.10
2023-02-28T03:16:18.881Z,16.95
2023-02-28T03:19:02.722Z,17.15
2023-02-28T03:21:31.759Z,18.77
2023-02-28T03:24:23.609Z,17.77
2023-02-28T03:26:54.164Z,16.77
2023-02-28T03:29:44.835Z,18.02
2023-02-28T03:32:30.909Z,17.80
2023-02-28T03:35:13.679Z,17.10
2023-02-28T03:37:42.052Z,20.88
2023-02-28T03:40:15.659Z,20.67
2023-02-28T03:42:40.945Z,18.08
2023-02-28T03:45:13.026Z,20.15
2023-02-28T03:47:57.846Z,16.73
2023-02-28T03:50:27.815Z,20.75
2023-02-28T03:53:05.835Z,17.07
2023-02-28T03:55:35.550Z,15.63
2023-02-28T03:58:02.543Z,16.98
2023-02-28T04:00:37.062Z,19.63
2023-02-28T04:03:00.129Z,21.88
2023-02-28T04:05:23.564Z,17.77
2023-02-28T04:07:46.371Z,17.27
2023-02-28T04:10:10.722Z,20.30
2023-02-28T04:12:34.841Z,18.65
2023-02-28T04:14:57.404Z,22.15
2023-02-28T04:17:20.204Z,19.57
2023-02-28T04:19:43.375Z,18.58
2023-02-28T04:22:05.992Z,21.23
2023-02-28T04:24:29.064Z,18.27
2023-02-28T04:26:53.837Z,16.17
2023-02-28T04:29:25.077Z,18.30
2023-02-28T04:31:47.923Z,18.27
2023-02-28T04:34:10.806Z,16.88
2023-02-28T04:36:33.787Z,16.80
2023-02-28T04:38:56.629Z,17.50
2023-02-28T04:41:19.523Z,18.80
2023-02-28T04:43:42.424Z,19.05
2023-02-28T04:46:06.553Z,14.98
2023-02-28T04:48:30.873Z,17.02
2023-02-28T04:50:53.737Z,15.38
2023-02-28T04:53:16.475Z,15.40
2023-02-28T04:55:41.154Z,13.95
2023-02-28T04:58:03.864Z,15.68
2023-02-28T05:00:26.655Z,15.10
2023-02-28T05:02:49.459Z,14.55
2023-02-28T05:05:13.098Z,13.97
2023-02-28T05:07:35.791Z,12.30
2023-02-28T05:09:58.568Z,16.77
2023-02-28T05:12:21.307Z,12.52
2023-02-28T05:14:45.214Z,13.55
2023-02-28T05:17:07.770Z,14.83
2023-02-28T05:19:30.914Z,14.48
2023-02-28T05:21:56.026Z,14.40
2023-02-28T05:24:23.801Z,13.43
2023-02-28T05:26:46.520Z,12.40
2023-02-28T05:29:10.660Z,14.33
2023-02-28T05:31:33.885Z,14.43
2023-02-28T05:33:56.524Z,14.65
2023-02-28T05:36:19.358Z,11.43
2023-02-28T05:38:42.048Z,14.40
2023-02-28T05:41:11.730Z,12.67
2023-02-28T05:43:35.487Z,11.73
2023-02-28T05:45:58.200Z,12.93
2023-02-28T05:48:20.854Z,10.80
2023-02-28T05:50:45.833Z,11.23
2023-02-28T05:53:08.451Z,11.17
2023-02-28T05:55:31.245Z,10.90
2023-02-28T05:57:56.886Z,12.55
2023-02-28T06:00:19.984Z,10.80
2023-02-28T06:02:42.918Z,12.90
2023-02-28T06:05:05.847Z,14.43
2023-02-28T06:07:28.556Z,12.85
2023-02-28T06:09:52.068Z,12.15
2023-02-28T06:12:14.837Z,13.07
2023-02-28T06:14:37.512Z,13.43
2023-02-28T06:17:01.353Z,12.47
2023-02-28T06:19:26.707Z,11.35
2023-02-28T06:21:53.332Z,14.27
2023-02-28T06:24:16.529Z,11.18
2023-02-28T06:26:39.304Z,12.88
2023-02-28T06:29:02.108Z,11.73
2023-02-28T06:31:27.078Z,15.95
2023-02-28T06:33:50.125Z,19.25
2023-02-28T06:36:14.380Z,16.67
2023-02-28T06:38:38.163Z,20.58
2023-02-28T06:41:02.195Z,20.03
2023-02-28T06:43:25.828Z,13.15
2023-02-28T06:45:48.619Z,18.17
2023-02-28T06:48:11.711Z,19.00
2023-02-28T06:50:34.620Z,33.05
2023-02-28T06:52:57.434Z,18.63
2023-02-28T06:55:20.424Z,18.80
2023-02-28T06:57:43.202Z,19.50
2023-02-28T07:00:09.578Z,18.10
2023-02-28T07:02:32.828Z,13.98
2023-02-28T07:04:55.673Z,15.10
2023-02-28T07:07:18.304Z,17.23
2023-02-28T07:09:41.691Z,15.45
2023-02-28T07:12:04.582Z,16.73
2023-02-28T07:14:27.870Z,15.80
2023-02-28T07:16:51.420Z,17.20
2023-02-28T07:19:14.089Z,17.85
2023-02-28T07:21:36.801Z,14.00
2023-02-28T07:23:59.569Z,14.82
2023-02-28T07:26:22.813Z,13.15
2023-02-28T07:28:47.532Z,15.77
2023-02-28T07:31:11.069Z,15.57
2023-02-28T07:33:35.218Z,13.57
2023-02-28T07:36:16.492Z,15.07
2023-02-28T07:38:39.400Z,14.93
2023-02-28T07:41:05.410Z,14.27
2023-02-28T07:43:28.252Z,15.82
2023-02-28T07:45:51.333Z,16.77
2023-02-28T07:48:14.388Z,15.90
2023-02-28T07:50:37.559Z,13.70
2023-02-28T07:53:00.550Z,12.40
2023-02-28T07:55:23.480Z,16.23
2023-02-28T07:57:46.260Z,15.57
2023-02-28T08:00:11.348Z,14.73
2023-02-28T08:02:37.605Z,17.63
2023-02-28T08:05:01.017Z,14.00
2023-02-28T08:08:05.217Z,14.18
2023-02-28T08:10:28.078Z,13.05
2023-02-28T08:12:50.979Z,13.05
2023-02-28T08:15:13.819Z,14.32
2023-02-28T08:17:36.999Z,14.03
2023-02-28T08:20:00.593Z,14.23
2023-02-28T08:22:24.504Z,13.38
2023-02-28T08:24:47.308Z,13.88
2023-02-28T08:27:11.101Z,12.93
2023-02-28T08:29:33.765Z,13.87
2023-02-28T08:31:56.633Z,12.40
2023-02-28T08:34:19.649Z,16.00
2023-02-28T08:36:43.779Z,13.50
2023-02-28T08:39:07.210Z,12.52
2023-02-28T08:41:30.339Z,11.40
2023-02-28T08:43:54.669Z,12.32
2023-02-28T08:46:17.431Z,12.52
2023-02-28T08:48:40.834Z,15.38
2023-02-28T08:51:10.398Z,11.80
2023-02-28T08:53:33.897Z,12.70
2023-02-28T08:56:10.754Z,10.75
2023-02-28T08:58:35.301Z,12.05
2023-02-28T09:00:58.734Z,12.05
2023-02-28T09:03:25.270Z,12.10
2023-02-28T09:05:59.110Z,13.53
2023-02-28T09:08:22.223Z,11.27
2023-02-28T09:10:44.892Z,13.10
2023-02-28T09:13:08.003Z,12.80
2023-02-28T09:15:30.547Z,11.48
2023-02-28T09:17:53.355Z,15.50
2023-02-28T09:20:16.823Z,13.52
2023-02-28T09:22:39.806Z,14.35
2023-02-28T09:25:02.588Z,12.40
2023-02-28T09:27:25.814Z,13.27
2023-02-28T09:29:49.328Z,14.87
2023-02-28T09:32:12.209Z,12.90
2023-02-28T09:34:35.229Z,12.63
2023-02-28T09:36:58.716Z,13.32
2023-02-28T09:39:24.529Z,15.48
2023-02-28T09:41:52.974Z,14.30
2023-02-28T09:44:37.528Z,15.27
2023-02-28T09:47:08.792Z,11.48
2023-02-28T09:49:41.773Z,16.80
2023-02-28T09:52:11.492Z,11.85
2023-02-28T09:54:34.809Z,15.30
2023-02-28T09:57:28.564Z,16.27
2023-02-28T10:00:29.963Z,13.38
2023-02-28T10:02:55.604Z,13.68
2023-02-28T10:05:29.826Z,14.57
2023-02-28T10:08:09.167Z,12.97
2023-02-28T10:10:54.508Z,14.82
2023-02-28T10:13:35.400Z,10.85
2023-02-28T10:16:05.149Z,13.63
2023-02-28T10:18:57.695Z,13.80
2023-02-28T10:21:36.473Z,16.00
2023-02-28T10:24:36.450Z,14.07
2023-02-28T10:27:13.811Z,14.60
2023-02-28T10:29:37.013Z,14.65
2023-02-28T10:32:03.801Z,11.75
2023-02-28T10:34:26.718Z,12.80
2023-02-28T10:36:51.511Z,15.95
2023-02-28T10:39:38.566Z,14.07
2023-02-28T10:42:01.561Z,12.18
2023-02-28T10:44:25.024Z,17.90
2023-02-28T10:46:53.100Z,12.73
2023-02-28T10:49:21.866Z,14.65
2023-02-28T10:51:46.035Z,11.90
2023-02-28T10:54:21.037Z,11.77
2023-02-28T10:56:44.117Z,13.10
2023-02-28T10:59:09.843Z,15.73
2023-02-28T11:01:42.929Z,15.25
2023-02-28T11:04:20.819Z,13.43
2023-02-28T11:06:43.985Z,12.57
2023-02-28T11:09:30.374Z,12.75
2023-02-28T11:11:54.124Z,11.23
2023-02-28T11:14:26.881Z,11.48
2023-02-28T11:16:51.041Z,13.82
2023-02-28T11:19:40.228Z,11.90
2023-02-28T11:22:05.109Z,14.00
2023-02-28T11:24:42.952Z,12.63
2023-02-28T11:27:05.728Z,14.55
2023-02-28T11:29:30.935Z,12.70
2023-02-28T11:32:05.006Z,13.23
2023-02-28T11:34:28.898Z,11.07
2023-02-28T11:36:53.588Z,14.20
2023-02-28T11:39:22.001Z,11.98
2023-02-28T11:42:06.337Z,12.48
2023-02-28T11:44:53.569Z,13.27
2023-02-28T11:47:26.558Z,12.52
2023-02-28T11:50:01.484Z,13.47
2023-02-28T11:52:44.985Z,14.57
2023-02-28T11:55:29.184Z,13.13
2023-02-28T11:58:19.769Z,16.08
2023-02-28T12:01:10.069Z,14.02
2023-02-28T12:03:45.647Z,12.73
2023-02-28T12:06:23.761Z,13.45
2023-02-28T12:08:46.653Z,11.60
2023-02-28T12:11:39.577Z,11.95
2023-02-28T12:14:28.428Z,12.80
2023-02-28T12:17:20.547Z,13.00
2023-02-28T12:20:01.185Z,13.05
2023-02-28T12:22:39.847Z,12.13
2023-02-28T12:25:08.720Z,13.93
2023-02-28T12:27:38.050Z,12.48
2023-02-28T12:30:16.577Z,13.13
2023-02-28T12:32:43.578Z,11.43
2023-02-28T12:35:15.340Z,13.38
2023-02-28T12:38:05.012Z,15.25
2023-02-28T12:40:47.320Z,12.63
2023-02-28T12:43:12.950Z,12.37
2023-02-28T12:45:49.683Z,12.25
2023-02-28T12:48:17.525Z,12.73
2023-02-28T12:50:41.806Z,13.05
2023-02-28T12:53:15.336Z,15.15
2023-02-28T12:55:47.020Z,12.37
2023-02-28T12:58:15.115Z,16.48
2023-02-28T13:00:48.476Z,14.23
2023-02-28T13:03:43.107Z,16.92
2023-02-28T13:06:33.254Z,14.65
2023-02-28T13:09:09.358Z,13.17
2023-02-28T13:11:46.336Z,12.32
2023-02-28T13:14:33.877Z,11.43
2023-02-28T13:16:59.071Z,14.50
2023-02-28T13:19:24.375Z,14.77
2023-02-28T13:21:50.059Z,12.57
2023-02-28T13:24:33.490Z,11.27
2023-02-28T13:27:02.209Z,12.45
2023-02-28T13:29:43.545Z,14.30
2023-02-28T13:32:09.819Z,13.10
2023-02-28T13:34:49.546Z,12.53
2023-02-28T13:37:24.196Z,13.50
2023-02-28T13:40:00.425Z,12.23
2023-02-28T13:42:25.680Z,13.07
2023-02-28T13:45:11.609Z,11.80
2023-02-28T13:47:52.558Z,12.93
2023-02-28T13:50:27.165Z,14.50
2023-02-28T13:53:02.465Z,10.98
2023-02-28T13:55:37.660Z,12.40
2023-02-28T13:58:00.514Z,14.23
2023-02-28T14:00:45.041Z,12.87
2023-02-28T14:03:08.195Z,12.50
2023-02-28T14:05:33.756Z,12.23
2023-02-28T14:08:05.899Z,13.18
2023-02-28T14:10:34.661Z,13.52
2023-02-28T14:13:13.539Z,13.80
2023-02-28T14:16:07.098Z,13.48
2023-02-28T14:18:29.903Z,12.02
2023-02-28T14:21:09.329Z,18.23
2023-02-28T14:24:00.860Z,11.77
2023-02-28T14:26:58.391Z,9.63
2023-02-28T14:29:33.671Z,13.38
2023-02-28T14:32:02.446Z,12.43
2023-02-28T14:34:40.581Z,11.13
2023-02-28T14:37:04.743Z,11.85
2023-02-28T14:39:31.875Z,11.60
2023-02-28T14:41:54.581Z,13.10
2023-02-28T14:44:21.580Z,10.05
2023-02-28T14:46:45.923Z,12.43
2023-02-28T14:49:18.006Z,14.30
2023-02-28T14:51:40.929Z,16.53
2023-02-28T14:54:05.376Z,18.25
2023-02-28T14:56:35.132Z,16.40
2023-02-28T14:58:58.672Z,14.35
2023-02-28T15:01:24.290Z,15.00
2023-02-28T15:03:48.308Z,14.67
2023-02-28T15:06:18.534Z,16.17
2023-02-28T15:08:41.821Z,14.13
2023-02-28T15:11:17.517Z,13.90
2023-02-28T15:13:44.948Z,14.73
2023-02-28T15:16:47.230Z,15.13
2023-02-28T15:19:21.336Z,15.55
2023-02-28T15:21:49.500Z,16.30
2023-02-28T15:24:24.711Z,14.52
2023-02-28T15:26:50.688Z,14.43
2023-02-28T15:29:21.562Z,15.10
2023-02-28T15:31:56.903Z,16.55
2023-02-28T15:34:33.637Z,15.27
2023-02-28T15:36:59.782Z,15.05
2023-02-28T15:39:30.362Z,18.88
2023-02-28T15:41:53.797Z,14.67
2023-02-28T15:44:34.527Z,15.70
2023-02-28T15:47:20.532Z,15.18
2023-02-28T15:49:53.361Z,17.55
2023-02-28T15:52:19.867Z,15.07
2023-02-28T15:54:43.901Z,17.33
2023-02-28T15:57:09.627Z,17.40
2023-02-28T15:59:32.829Z,15.20
2023-02-28T16:02:21.683Z,17.63
2023-02-28T16:05:01.109Z,14.85
2023-02-28T16:07:25.133Z,13.80
2023-02-28T16:09:50.861Z,14.15
2023-02-28T16:12:14.720Z,17.55
2023-02-28T16:14:39.780Z,14.20
2023-02-28T16:17:11.602Z,13.68
2023-02-28T16:19:34.890Z,17.57
2023-02-28T16:21:58.086Z,17.27
2023-02-28T16:24:20.701Z,17.23
2023-02-28T16:26:49.611Z,15.50
2023-02-28T16:29:22.155Z,17.80
2023-02-28T16:31:45.187Z,17.03
2023-02-28T16:34:07.768Z,18.73
2023-02-28T16:36:31.207Z,16.58
2023-02-28T16:38:55.414Z,19.55
2023-02-28T16:41:28.778Z,18.00
2023-02-28T16:43:54.910Z,19.73
2023-02-28T16:46:18.367Z,19.23
2023-02-28T16:48:41.706Z,21.40
2023-02-28T16:51:05.447Z,19.25
2023-02-28T16:53:28.145Z,18.23
2023-02-28T16:55:51.978Z,20.33
2023-02-28T16:58:17.211Z,18.30
2023-02-28T17:00:40.707Z,21.77
2023-02-28T17:03:06.340Z,25.23
2023-02-28T17:05:38.912Z,20.67
2023-02-28T17:08:01.610Z,19.30
2023-02-28T17:10:27.144Z,20.52
2023-02-28T17:12:50.528Z,21.95
2023-02-28T17:15:14.939Z,17.60
2023-02-28T17:17:38.099Z,21.05
2023-02-28T17:20:05.735Z,18.27
2023-02-28T17:22:29.848Z,18.17
2023-02-28T17:24:56.560Z,18.17
2023-02-28T17:27:19.888Z,21.42
2023-02-28T17:29:42.853Z,19.42
2023-02-28T17:32:17.160Z,20.37
2023-02-28T17:34:40.214Z,18.23
2023-02-28T17:37:03.869Z,20.00
2023-02-28T17:39:26.934Z,22.55
2023-02-28T17:41:49.768Z,19.52
2023-02-28T17:44:12.804Z,20.83
2023-02-28T17:46:35.950Z,20.83
2023-02-28T17:48:59.517Z,23.35
2023-02-28T17:51:24.979Z,19.75
2023-02-28T17:53:47.948Z,17.25
2023-02-28T17:56:15.483Z,22.70
2023-02-28T17:58:38.469Z,24.75
2023-02-28T18:01:01.308Z,21.80
2023-02-28T18:03:25.388Z,16.85
2023-02-28T18:05:48.814Z,20.63
2023-02-28T18:08:13.393Z,14.93
2023-02-28T18:10:36.746Z,15.57
2023-02-28T18:13:00.854Z,17.27
2023-02-28T18:15:23.715Z,19.08
2023-02-28T18:17:47.310Z,15.45
2023-02-28T18:20:11.746Z,20.20
2023-02-28T18:22:37.015Z,20.25
2023-02-28T18:24:59.994Z,19.10
2023-02-28T18:27:22.841Z,20.65
2023-02-28T18:29:46.408Z,22.27
2023-02-28T18:32:10.145Z,22.17
2023-02-28T18:34:33.021Z,21.92
2023-02-28T18:36:56.477Z,22.35
2023-02-28T18:39:20.123Z,21.13
2023-02-28T18:41:43.519Z,20.23
2023-02-28T18:44:18.691Z,20.93
2023-02-28T18:46:42.613Z,22.48
2023-02-28T18:49:46.680Z,19.58
2023-02-28T18:52:09.684Z,19.90
2023-02-28T18:54:32.624Z,18.42
2023-02-28T18:56:56.211Z,20.63
2023-02-28T18:59:19.085Z,18.88
2023-02-28T19:01:43.155Z,18.55
2023-02-28T19:04:06.654Z,20.08
2023-02-28T19:06:31.045Z,18.73
2023-02-28T19:08:58.754Z,17.23
2023-02-28T19:11:21.700Z,15.88
2023-02-28T19:13:46.278Z,18.20
2023-02-28T19:16:11.474Z,17.20
2023-02-28T19:18:34.777Z,21.77
2023-02-28T19:20:57.431Z,21.77
2023-02-28T19:23:20.286Z,20.90
2023-02-28T19:25:43.427Z,23.77
2023-02-28T19:28:06.421Z,24.65
2023-02-28T19:30:30.093Z,21.70
2023-02-28T19:32:53.463Z,24.87
2023-02-28T19:35:16.923Z,23.23
2023-02-28T19:37:41.355Z,24.40
2023-02-28T19:40:06.973Z,22.75
2023-02-28T19:42:33.261Z,22.60
2023-02-28T19:45:00.123Z,23.57
2023-02-28T19:47:23.372Z,20.38
2023-02-28T19:49:46.500Z,22.52
2023-02-28T19:52:13.329Z,21.25
2023-02-28T19:54:38.367Z,21.25
2023-02-28T19:57:02.329Z,23.73
2023-02-28T19:59:35.900Z,22.80
2023-02-28T20:02:01.415Z,23.45
2023-02-28T20:04:26.276Z,23.55
2023-02-28T20:06:49.199Z,23.83
2023-02-28T20:09:12.066Z,22.77
2023-02-28T20:11:34.919Z,24.05
2023-02-28T20:13:57.956Z,23.70
2023-02-28T20:16:21.073Z,24.80
2023-02-28T20:18:44.780Z,23.98
2023-02-28T20:21:09.628Z,25.83
2023-02-28T20:23:32.716Z,22.45
2023-02-28T20:25:59.880Z,21.75
2023-02-28T20:28:22.768Z,23.80
2023-02-28T20:30:50.970Z,21.50
2023-02-28T20:33:14.251Z,23.00
2023-02-28T20:35:37.095Z,22.90
2023-02-28T20:38:00.126Z,24.50
2023-02-28T20:40:23.152Z,21.85
2023-02-28T20:42:46.122Z,24.65
2023-02-28T20:45:09.847Z,23.77
2023-02-28T20:47:32.740Z,21.88
2023-02-28T20:49:59.129Z,24.55
2023-02-28T20:52:21.904Z,26.52
2023-02-28T20:54:44.572Z,24.17
2023-02-28T20:57:08.000Z,22.73
2023-02-28T20:59:30.946Z,24.58
2023-02-28T21:01:56.267Z,28.67
2023-02-28T21:04:19.292Z,24.80
2023-02-28T21:06:43.800Z,26.42
2023-02-28T21:09:09.080Z,26.10
2023-02-28T21:11:33.890Z,28.10
2023-02-28T21:14:00.358Z,28.42
2023-02-28T21:16:26.168Z,27.05
2023-02-28T21:18:49.404Z,27.35
2023-02-28T21:21:15.701Z,26.20
2023-02-28T21:23:38.794Z,24.42
2023-02-28T21:26:05.572Z,25.02
2023-02-28T21:28:28.234Z,24.80
2023-02-28T21:30:50.820Z,22.23
2023-02-28T21:33:13.648Z,20.40
2023-02-28T21:35:36.264Z,25.05
2023-02-28T21:37:59.279Z,26.75
2023-02-28T21:40:22.007Z,24.13
2023-02-28T21:42:44.828Z,24.58
2023-02-28T21:45:08.002Z,30.10
2023-02-28T21:47:31.088Z,26.20
2023-02-28T21:49:54.213Z,23.20
2023-02-28T21:52:21.937Z,26.45
2023-02-28T21:54:44.810Z,27.00
2023-02-28T21:57:07.441Z,24.73
2023-02-28T21:59:30.483Z,24.33
2023-02-28T22:01:55.091Z,21.45
2023-02-28T22:04:21.632Z,24.45
2023-02-28T22:06:45.250Z,24.50
2023-02-28T22:09:09.485Z,23.73
2023-02-28T22:11:32.644Z,24.02
2023-02-28T22:13:57.270Z,26.85
2023-02-28T22:16:21.849Z,22.58
2023-02-28T22:18:45.236Z,24.98
2023-02-28T22:21:09.605Z,22.47
2023-02-28T22:23:33.405Z,21.08
2023-02-28T22:25:56.663Z,24.20
2023-02-28T22:28:20.691Z,20.38
2023-02-28T22:30:44.058Z,19.63
2023-02-28T22:33:06.650Z,22.20
2023-02-28T22:35:29.926Z,21.83
2023-02-28T22:37:52.662Z,22.58
2023-02-28T22:40:15.732Z,21.25
2023-02-28T22:42:39.029Z,21.38
2023-02-28T22:45:01.802Z,22.53
2023-02-28T22:47:26.570Z,19.85
2023-02-28T22:49:49.743Z,19.25
2023-02-28T22:52:12.270Z,19.42
2023-02-28T22:54:35.473Z,19.58
2023-02-28T22:56:58.107Z,19.43
2023-02-28T22:59:21.770Z,19.90
2023-02-28T23:01:44.954Z,19.10
2023-02-28T23:04:07.708Z,18.05
2023-02-28T23:06:33.987Z,19.58
2023-02-28T23:09:00.417Z,20.17
2023-02-28T23:11:26.115Z,20.67
2023-02-28T23:13:58.486Z,19.92
2023-02-28T23:16:21.344Z,24.45
2023-02-28T23:18:43.944Z,25.17
2023-02-28T23:21:06.691Z,24.17
2023-02-28T23:23:29.222Z,23.83
2023-02-28T23:25:52.098Z,21.17
2023-02-28T23:28:14.942Z,20.80
2023-02-28T23:30:41.787Z,24.85
2023-02-28T23:33:05.825Z,20.10
2023-02-28T23:35:28.505Z,25.88
2023-02-28T23:37:51.104Z,24.25
2023-02-28T23:40:14.470Z,24.60
2023-02-28T23:42:58.558Z,26.33
2023-02-28T23:45:22.199Z,27.17
2023-02-28T23:47:45.295Z,26.10
2023-02-28T23:50:09.213Z,23.95
2023-02-28T23:52:32.690Z,22.55
2023-02-28T23:54:55.459Z,25.15
2023-02-28T23:57:18.019Z,23.70
2023-02-28T23:59:43.180Z,23.55
